createdAt,value
2022-10-30T00:00:06.757Z,49.45
2022-10-30T00:03:16.375Z,59.83
2022-10-30T00:06:20.410Z,54.60
2022-10-30T00:09:24.327Z,54.42
2022-10-30T00:12:27.963Z,43.47
2022-10-30T00:15:31.486Z,48.63
2022-10-30T00:18:40.303Z,47.45
2022-10-30T00:21:43.876Z,46.67
2022-10-30T00:24:47.238Z,69.33
2022-10-30T00:27:50.852Z,55.70
2022-10-30T00:30:53.977Z,51.67
2022-10-30T00:33:56.940Z,48.10
2022-10-30T00:37:00.987Z,44.60
2022-10-30T00:40:05.447Z,46.13
2022-10-30T00:43:32.484Z,48.58
2022-10-30T00:46:39.054Z,50.95
2022-10-30T00:50:08.786Z,52.08
2022-10-30T00:53:18.039Z,52.47
2022-10-30T00:56:24.265Z,52.47
2022-10-30T00:59:31.295Z,54.47
2022-10-30T01:02:35.486Z,60.60
2022-10-30T01:05:39.912Z,67.05
2022-10-30T01:08:44.885Z,67.47
2022-10-30T01:11:48.607Z,69.07
2022-10-30T01:14:57.394Z,58.85
2022-10-30T01:18:15.661Z,57.35
2022-10-30T01:21:38.126Z,43.75
2022-10-30T01:25:07.237Z,44.37
2022-10-30T01:28:20.154Z,35.17
2022-10-30T01:31:56.715Z,31.55
2022-10-30T01:35:09.435Z,32.10
2022-10-30T01:38:15.934Z,33.65
2022-10-30T01:41:20.608Z,52.00
2022-10-30T01:44:32.661Z,55.93
2022-10-30T01:47:45.875Z,50.75
2022-10-30T01:50:55.461Z,39.20
2022-10-30T01:54:04.576Z,37.85
2022-10-30T01:57:29.294Z,36.73
2022-10-30T02:00:32.916Z,48.03
2022-10-30T02:03:37.689Z,45.85
2022-10-30T02:06:41.747Z,46.03
2022-10-30T02:09:46.964Z,46.90
2022-10-30T02:12:51.740Z,48.73
2022-10-30T02:15:55.127Z,45.00
2022-10-30T02:18:58.179Z,42.35
2022-10-30T02:22:02.449Z,38.95
2022-10-30T02:25:07.260Z,51.70
2022-10-30T02:28:10.629Z,46.77
2022-10-30T02:31:14.939Z,48.07
2022-10-30T02:34:19.002Z,44.60
2022-10-30T02:37:22.590Z,50.88
2022-10-30T02:40:25.434Z,52.40
2022-10-30T02:43:28.428Z,55.90
2022-10-30T02:46:31.369Z,57.90
2022-10-30T02:49:34.617Z,60.05
2022-10-30T02:52:38.429Z,68.63
2022-10-30T02:55:41.479Z,53.38
2022-10-30T02:58:45.172Z,55.03
2022-10-30T03:01:49.307Z,66.70
2022-10-30T03:04:52.330Z,66.07
2022-10-30T03:07:56.175Z,59.15
2022-10-30T03:11:10.880Z,62.47
2022-10-30T03:14:14.947Z,49.90
2022-10-30T03:17:19.138Z,51.07
2022-10-30T03:20:24.992Z,50.00
2022-10-30T03:23:29.862Z,50.55
2022-10-30T03:26:33.889Z,59.55
2022-10-30T03:29:41.548Z,65.30
2022-10-30T03:32:45.197Z,53.23
2022-10-30T03:35:48.561Z,52.00
2022-10-30T03:38:52.136Z,40.22
2022-10-30T03:41:56.601Z,47.40
2022-10-30T03:45:00.159Z,49.73
2022-10-30T03:48:07.199Z,46.60
2022-10-30T03:51:11.001Z,52.63
2022-10-30T03:54:14.215Z,29.02
2022-10-30T03:57:17.224Z,33.70
2022-10-30T04:00:38.571Z,46.57
2022-10-30T04:03:42.257Z,38.03
2022-10-30T04:06:48.891Z,37.05
2022-10-30T04:09:52.674Z,21.80
2022-10-30T04:13:07.071Z,23.48
2022-10-30T04:16:12.700Z,28.17
2022-10-30T04:19:16.793Z,27.43
2022-10-30T04:22:21.617Z,33.70
2022-10-30T04:25:25.635Z,38.58
2022-10-30T04:28:29.150Z,38.30
2022-10-30T04:31:33.220Z,35.47
2022-10-30T04:34:40.287Z,27.43
2022-10-30T04:37:44.227Z,27.77
2022-10-30T04:40:49.418Z,26.63
2022-10-30T04:43:53.449Z,24.05
2022-10-30T04:46:57.386Z,20.73
2022-10-30T04:50:02.447Z,20.83
2022-10-30T04:53:14.276Z,19.52
2022-10-30T04:56:18.358Z,21.55
2022-10-30T04:59:21.874Z,20.42
2022-10-30T05:02:27.608Z,21.97
2022-10-30T05:05:31.820Z,18.93
2022-10-30T05:08:35.214Z,17.60
2022-10-30T05:11:48.264Z,17.63
2022-10-30T05:14:51.257Z,15.68
2022-10-30T05:17:54.396Z,20.90
2022-10-30T05:20:57.450Z,21.03
2022-10-30T05:24:01.165Z,31.83
2022-10-30T05:27:09.333Z,31.38
2022-10-30T05:30:13.217Z,27.65
2022-10-30T05:33:18.628Z,21.70
2022-10-30T05:36:22.603Z,20.33
2022-10-30T05:39:25.676Z,20.10
2022-10-30T05:42:30.297Z,23.95
2022-10-30T05:45:36.188Z,17.45
2022-10-30T05:48:41.451Z,23.20
2022-10-30T05:51:45.114Z,29.67
2022-10-30T05:54:48.725Z,43.85
2022-10-30T05:58:04.532Z,29.13
2022-10-30T06:01:10.089Z,26.70
2022-10-30T06:04:22.279Z,29.90
2022-10-30T06:07:25.602Z,23.97
2022-10-30T06:10:29.538Z,28.33
2022-10-30T06:13:50.889Z,22.38
2022-10-30T06:16:58.354Z,43.45
2022-10-30T06:20:29.737Z,27.67
2022-10-30T06:23:51.214Z,34.43
2022-10-30T06:27:12.863Z,23.52
2022-10-30T06:30:16.034Z,27.27
2022-10-30T06:33:19.248Z,29.27
2022-10-30T06:36:28.754Z,25.57
2022-10-30T06:39:33.459Z,49.67
2022-10-30T06:43:02.733Z,49.30
2022-10-30T06:46:12.952Z,36.53
2022-10-30T06:49:18.346Z,39.63
2022-10-30T06:52:23.562Z,39.17
2022-10-30T06:55:30.526Z,38.83
2022-10-30T06:58:47.866Z,42.40
2022-10-30T07:02:12.334Z,44.88
2022-10-30T07:05:21.429Z,43.83
2022-10-30T07:08:25.180Z,39.13
2022-10-30T07:11:29.043Z,62.87
2022-10-30T07:14:52.906Z,109.78
2022-10-30T07:18:14.573Z,55.63
2022-10-30T07:21:17.965Z,56.72
2022-10-30T07:24:22.110Z,46.00
2022-10-30T07:27:53.134Z,43.23
2022-10-30T07:31:41.372Z,35.63
2022-10-30T07:35:07.963Z,36.50
2022-10-30T07:38:28.512Z,47.35
2022-10-30T07:41:40.093Z,28.47
2022-10-30T07:45:01.574Z,31.03
2022-10-30T07:48:11.697Z,29.52
2022-10-30T07:51:22.800Z,34.72
2022-10-30T07:54:25.823Z,26.15
2022-10-30T07:57:33.047Z,23.93
2022-10-30T08:00:57.039Z,16.90
2022-10-30T08:04:07.434Z,13.20
2022-10-30T08:07:12.629Z,15.40
2022-10-30T08:10:16.860Z,17.00
2022-10-30T08:13:20.647Z,14.33
2022-10-30T08:16:23.566Z,16.90
2022-10-30T08:19:27.256Z,16.75
2022-10-30T08:22:32.469Z,17.48
2022-10-30T08:25:37.087Z,16.65
2022-10-30T08:28:40.820Z,18.50
2022-10-30T08:31:50.162Z,15.83
2022-10-30T08:34:59.199Z,19.05
2022-10-30T08:38:05.882Z,22.85
2022-10-30T08:41:10.264Z,16.17
2022-10-30T08:44:20.342Z,15.90
2022-10-30T08:47:46.245Z,19.70
2022-10-30T08:50:50.346Z,24.55
2022-10-30T08:54:01.663Z,30.50
2022-10-30T08:57:04.830Z,28.88
2022-10-30T09:00:09.234Z,40.43
2022-10-30T09:03:32.442Z,36.37
2022-10-30T09:07:13.007Z,38.63
2022-10-30T09:10:35.369Z,52.28
2022-10-30T09:13:38.537Z,35.55
2022-10-30T09:16:42.996Z,33.77
2022-10-30T09:19:46.146Z,34.63
2022-10-30T09:22:55.070Z,37.83
2022-10-30T09:25:58.821Z,40.10
2022-10-30T09:29:27.160Z,36.97
2022-10-30T09:32:37.258Z,36.13
2022-10-30T09:35:45.245Z,32.57
2022-10-30T09:38:49.013Z,39.27
2022-10-30T09:42:10.768Z,28.10
2022-10-30T09:45:29.772Z,28.58
2022-10-30T09:49:11.156Z,30.83
2022-10-30T09:52:45.455Z,30.90
2022-10-30T09:55:58.353Z,30.37
2022-10-30T09:59:31.950Z,21.85
2022-10-30T10:02:59.832Z,18.38
2022-10-30T10:06:18.507Z,19.42
2022-10-30T10:09:39.509Z,25.23
2022-10-30T10:13:09.736Z,29.63
2022-10-30T10:16:40.012Z,33.08
2022-10-30T10:19:54.306Z,49.38
2022-10-30T10:23:01.254Z,47.10
2022-10-30T10:26:17.563Z,42.60
2022-10-30T10:29:26.894Z,37.00
2022-10-30T10:32:55.032Z,39.33
2022-10-30T10:36:26.972Z,52.22
2022-10-30T10:39:46.908Z,84.18
2022-10-30T10:43:08.253Z,100.43
2022-10-30T10:46:26.407Z,102.13
2022-10-30T10:49:29.971Z,111.43
2022-10-30T10:52:41.881Z,114.88
2022-10-30T10:55:51.102Z,84.40
2022-10-30T10:59:00.660Z,111.13
2022-10-30T11:02:07.131Z,101.47
2022-10-30T11:05:31.122Z,87.25
2022-10-30T11:08:38.410Z,60.55
2022-10-30T11:11:42.458Z,68.47
2022-10-30T11:14:45.339Z,69.20
2022-10-30T11:18:07.610Z,53.40
2022-10-30T11:21:23.562Z,53.20
2022-10-30T11:24:30.452Z,49.42
2022-10-30T11:27:34.602Z,50.80
2022-10-30T11:30:38.108Z,43.53
2022-10-30T11:33:42.338Z,68.47
2022-10-30T11:36:53.030Z,57.78
2022-10-30T11:40:08.676Z,67.80
2022-10-30T11:43:16.511Z,60.72
2022-10-30T11:46:24.857Z,67.90
2022-10-30T11:50:02.690Z,74.60
2022-10-30T11:53:32.196Z,99.45
2022-10-30T11:56:36.755Z,80.43
2022-10-30T11:59:40.087Z,81.45
2022-10-30T12:02:46.601Z,88.20
2022-10-30T12:05:50.447Z,82.80
2022-10-30T12:09:23.418Z,84.57
2022-10-30T12:12:44.366Z,94.75
2022-10-30T12:15:50.835Z,89.35
2022-10-30T12:18:59.005Z,89.17
2022-10-30T12:22:06.327Z,92.40
2022-10-30T12:25:32.954Z,84.88
2022-10-30T12:28:36.339Z,67.55
2022-10-30T12:31:47.124Z,57.15
2022-10-30T12:35:06.867Z,53.40
2022-10-30T12:38:33.838Z,60.03
2022-10-30T12:41:58.446Z,65.68
2022-10-30T12:45:07.288Z,97.78
2022-10-30T12:48:25.632Z,69.03
2022-10-30T12:51:36.182Z,61.73
2022-10-30T12:55:00.194Z,62.85
2022-10-30T12:58:16.326Z,60.58
2022-10-30T13:01:44.081Z,54.65
2022-10-30T13:04:52.396Z,54.90
2022-10-30T13:08:05.907Z,80.27
2022-10-30T13:11:32.239Z,71.60
2022-10-30T13:14:39.317Z,81.15
2022-10-30T13:17:43.248Z,63.95
2022-10-30T13:21:20.882Z,63.28
2022-10-30T13:24:31.076Z,61.47
2022-10-30T13:28:01.587Z,56.57
2022-10-30T13:31:37.439Z,61.13
2022-10-30T13:35:01.265Z,51.42
2022-10-30T13:38:25.366Z,52.65
2022-10-30T13:41:44.359Z,48.50
2022-10-30T13:45:00.290Z,52.57
2022-10-30T13:48:19.518Z,40.47
2022-10-30T13:51:25.587Z,47.53
2022-10-30T13:54:46.530Z,42.92
2022-10-30T13:58:08.523Z,42.13
2022-10-30T14:01:26.759Z,51.43
2022-10-30T14:04:59.073Z,45.93
2022-10-30T14:08:06.711Z,39.45
2022-10-30T14:11:13.742Z,32.67
2022-10-30T14:14:30.983Z,34.65
2022-10-30T14:17:34.236Z,28.13
2022-10-30T14:20:40.821Z,25.77
2022-10-30T14:23:44.929Z,30.48
2022-10-30T14:27:19.098Z,27.00
2022-10-30T14:30:23.156Z,23.35
2022-10-30T14:33:47.291Z,20.10
2022-10-30T14:36:50.951Z,16.10
2022-10-30T14:39:56.763Z,15.30
2022-10-30T14:43:04.730Z,8.68
2022-10-30T14:46:28.010Z,10.27
2022-10-30T14:49:43.804Z,8.57
2022-10-30T14:53:00.356Z,5.63
2022-10-30T14:59:33.335Z,5.78
2022-10-30T15:02:48.868Z,7.03
2022-10-30T15:06:00.260Z,7.10
2022-10-30T15:09:44.972Z,6.70
2022-10-30T15:13:20.225Z,6.10
2022-10-30T15:16:25.041Z,7.50
2022-10-30T15:19:29.856Z,8.70
2022-10-30T15:22:34.801Z,10.17
2022-10-30T15:25:50.138Z,13.57
2022-10-30T15:28:54.654Z,7.63
2022-10-30T15:32:06.138Z,7.53
2022-10-30T15:35:19.582Z,6.68
2022-10-30T15:38:23.570Z,8.37
2022-10-30T15:41:26.548Z,8.55
2022-10-30T15:44:33.539Z,10.43
2022-10-30T15:47:39.348Z,8.98
2022-10-30T15:50:53.687Z,8.85
2022-10-30T15:54:03.173Z,7.77
2022-10-30T16:00:36.875Z,8.95
2022-10-30T16:03:44.389Z,15.43
2022-10-30T16:07:17.282Z,8.48
2022-10-30T16:10:21.479Z,8.87
2022-10-30T16:13:31.493Z,8.23
2022-10-30T16:16:35.598Z,9.23
2022-10-30T16:19:50.133Z,10.27
2022-10-30T16:22:54.879Z,8.68
2022-10-30T16:25:59.944Z,7.87
2022-10-30T16:29:15.091Z,6.05
2022-10-30T16:32:21.420Z,4.55
2022-10-30T16:35:26.596Z,7.90
2022-10-30T16:38:35.169Z,10.35
2022-10-30T16:41:40.244Z,6.83
2022-10-30T16:44:43.941Z,9.73
2022-10-30T16:47:52.969Z,8.65
2022-10-30T16:51:04.667Z,8.50
2022-10-30T16:54:23.985Z,10.80
2022-10-30T16:57:30.343Z,6.67
2022-10-30T17:00:36.662Z,6.85
2022-10-30T17:03:42.394Z,5.28
2022-10-30T17:06:46.488Z,4.53
2022-10-30T17:09:53.099Z,3.53
2022-10-30T17:13:33.578Z,5.13
2022-10-30T17:16:40.063Z,3.33
2022-10-30T17:19:48.737Z,2.67
2022-10-30T17:23:06.004Z,3.40
2022-10-30T17:26:11.522Z,4.30
2022-10-30T17:29:38.846Z,3.27
2022-10-30T17:32:46.377Z,3.58
2022-10-30T17:35:50.317Z,3.20
2022-10-30T17:38:54.225Z,3.80
2022-10-30T17:41:58.649Z,4.63
2022-10-30T17:45:01.677Z,4.33
2022-10-30T17:48:16.537Z,7.43
2022-10-30T17:51:21.029Z,9.45
2022-10-30T17:54:25.653Z,5.45
2022-10-30T17:57:29.782Z,2.05
2022-10-30T18:00:34.215Z,2.87
2022-10-30T18:03:38.453Z,3.53
2022-10-30T18:06:42.967Z,3.25
2022-10-30T18:09:45.938Z,5.88
2022-10-30T18:12:50.101Z,4.70
2022-10-30T18:15:59.313Z,8.37
2022-10-30T18:19:03.317Z,8.25
2022-10-30T18:22:07.109Z,5.80
2022-10-30T18:25:17.425Z,5.20
2022-10-30T18:28:21.173Z,7.03
2022-10-30T18:31:25.654Z,5.43
2022-10-30T18:34:29.288Z,5.22
2022-10-30T18:37:32.988Z,4.53
2022-10-30T18:40:37.320Z,4.75
2022-10-30T18:43:45.551Z,5.60
2022-10-30T18:46:51.250Z,5.63
2022-10-30T18:49:57.124Z,9.70
2022-10-30T18:53:02.322Z,4.03
2022-10-30T18:56:06.605Z,7.70
2022-10-30T18:59:10.736Z,4.10
2022-10-30T19:02:25.069Z,6.60
2022-10-30T19:05:28.383Z,6.72
2022-10-30T19:08:31.990Z,5.72
2022-10-30T19:11:38.269Z,8.52
2022-10-30T19:14:43.291Z,8.35
2022-10-30T19:17:47.069Z,14.40
2022-10-30T19:21:03.930Z,7.55
2022-10-30T19:24:14.462Z,6.70
2022-10-30T19:27:18.039Z,8.93
2022-10-30T19:30:22.876Z,7.22
2022-10-30T19:33:26.976Z,8.77
2022-10-30T19:36:30.481Z,8.45
2022-10-30T19:39:34.466Z,7.15
2022-10-30T19:42:38.133Z,8.70
2022-10-30T19:45:42.144Z,8.40
2022-10-30T19:49:00.873Z,11.10
2022-10-30T19:52:05.612Z,16.52
2022-10-30T19:55:09.704Z,10.77
2022-10-30T19:58:15.921Z,10.25
2022-10-30T20:01:19.701Z,7.97
2022-10-30T20:04:23.105Z,11.63
2022-10-30T20:07:27.184Z,5.13
2022-10-30T20:10:33.833Z,8.30
2022-10-30T20:13:37.631Z,4.93
2022-10-30T20:16:41.304Z,7.90
2022-10-30T20:19:46.316Z,5.03
2022-10-30T20:22:50.260Z,6.28
2022-10-30T20:26:05.808Z,3.80
2022-10-30T20:29:09.942Z,8.48
2022-10-30T20:32:12.868Z,6.45
2022-10-30T20:35:17.258Z,4.60
2022-10-30T20:38:29.642Z,4.22
2022-10-30T20:41:42.206Z,4.70
2022-10-30T20:44:45.803Z,5.65
2022-10-30T20:47:49.105Z,4.25
2022-10-30T20:50:58.846Z,6.23
2022-10-30T20:54:02.343Z,6.65
2022-10-30T20:57:05.277Z,5.10
2022-10-30T21:00:12.383Z,6.72
2022-10-30T21:03:16.416Z,7.45
2022-10-30T21:06:20.408Z,8.47
2022-10-30T21:09:24.035Z,8.40
2022-10-30T21:12:27.915Z,14.13
2022-10-30T21:15:30.805Z,8.30
2022-10-30T21:18:34.207Z,11.23
2022-10-30T21:21:37.207Z,7.37
2022-10-30T21:24:40.231Z,10.32
2022-10-30T21:27:43.515Z,7.85
2022-10-30T21:30:47.223Z,9.80
2022-10-30T21:33:50.479Z,7.20
2022-10-30T21:36:53.974Z,6.07
2022-10-30T21:39:57.682Z,9.15
2022-10-30T21:43:04.088Z,6.28
2022-10-30T21:46:13.138Z,5.13
2022-10-30T21:49:18.393Z,6.72
2022-10-30T21:52:21.369Z,7.47
2022-10-30T21:55:24.295Z,6.75
2022-10-30T21:58:27.200Z,9.05
2022-10-30T22:01:32.506Z,8.98
2022-10-30T22:04:36.656Z,12.10
2022-10-30T22:07:40.521Z,12.70
2022-10-30T22:10:44.469Z,14.48
2022-10-30T22:13:48.173Z,19.20
2022-10-30T22:16:52.166Z,11.13
2022-10-30T22:19:55.907Z,9.40
2022-10-30T22:22:59.242Z,6.23
2022-10-30T22:26:05.181Z,6.13
2022-10-30T22:29:09.674Z,4.18
2022-10-30T22:32:14.114Z,4.75
2022-10-30T22:35:18.175Z,4.63
2022-10-30T22:38:21.382Z,4.20
2022-10-30T22:41:26.483Z,5.68
2022-10-30T22:44:31.298Z,6.60
2022-10-30T22:47:34.524Z,12.45
2022-10-30T22:50:40.171Z,6.45
2022-10-30T22:53:46.353Z,7.40
2022-10-30T22:56:50.388Z,6.05
2022-10-30T22:59:53.928Z,3.90
2022-10-30T23:02:57.838Z,5.32
2022-10-30T23:06:01.878Z,3.33
2022-10-30T23:09:08.897Z,3.80
2022-10-30T23:12:12.477Z,3.22
2022-10-30T23:15:15.394Z,5.93
2022-10-30T23:18:19.542Z,261.58
2022-10-30T23:21:25.284Z,15.03
2022-10-30T23:24:28.618Z,5.97
2022-10-30T23:27:31.979Z,5.40
2022-10-30T23:30:36.022Z,5.55
2022-10-30T23:33:40.317Z,6.80
2022-10-30T23:36:44.248Z,6.87
2022-10-30T23:39:47.733Z,7.80
2022-10-30T23:42:54.912Z,10.65
2022-10-30T23:45:58.129Z,12.20
2022-10-30T23:49:01.292Z,9.25
2022-10-30T23:52:05.502Z,10.47
2022-10-30T23:55:09.994Z,11.38
